createdAt,value
2017-08-05T00:01:01.491Z,5.40
2017-08-05T00:03:31.110Z,5.80
2017-08-05T00:05:59.723Z,2.40
2017-08-05T00:08:28.006Z,3.50
2017-08-05T00:10:57.046Z,2.87
2017-08-05T00:13:26.878Z,4.90
2017-08-05T00:15:56.667Z,3.20
2017-08-05T00:21:01.186Z,2.40
2017-08-05T00:23:30.810Z,2.03
2017-08-05T00:25:59.355Z,2.57
2017-08-05T00:28:29.039Z,2.23
2017-08-05T00:30:57.962Z,3.87
2017-08-05T00:33:26.238Z,2.80
2017-08-05T00:35:55.662Z,3.83
2017-08-05T00:38:25.447Z,5.27
2017-08-05T00:40:53.727Z,5.07
2017-08-05T00:43:23.918Z,2.37
2017-08-05T00:45:53.703Z,2.50
2017-08-05T00:48:21.979Z,3.10
2017-08-05T00:50:52.262Z,3.77
2017-08-05T00:53:20.555Z,2.60
2017-08-05T00:55:50.358Z,2.80
2017-08-05T00:58:19.506Z,2.40
2017-08-05T01:00:48.936Z,3.87
2017-08-05T01:03:17.224Z,5.00
2017-08-05T01:05:45.608Z,3.27
2017-08-05T01:08:13.891Z,3.93
2017-08-05T01:10:42.935Z,4.30
2017-08-05T01:13:12.314Z,3.40
2017-08-05T01:15:40.995Z,5.27
2017-08-05T01:18:09.263Z,3.80
2017-08-05T01:20:37.603Z,4.07
2017-08-05T01:23:05.890Z,5.20
2017-08-05T01:25:34.167Z,3.43
2017-08-05T01:28:03.906Z,5.10
2017-08-05T01:30:32.179Z,2.60
2017-08-05T01:33:00.854Z,2.60
2017-08-05T01:35:30.350Z,2.80
2017-08-05T01:38:00.130Z,2.43
2017-08-05T01:40:28.406Z,2.30
2017-08-05T01:42:57.175Z,3.10
2017-08-05T01:45:25.451Z,3.47
2017-08-05T01:47:55.238Z,3.13
2017-08-05T01:50:23.891Z,3.43
2017-08-05T01:52:52.567Z,4.90
2017-08-05T01:55:21.975Z,5.63
2017-08-05T01:57:51.075Z,3.40
2017-08-05T02:00:19.353Z,4.30
2017-08-05T02:02:47.627Z,4.83
2017-08-05T02:05:16.079Z,3.10
2017-08-05T02:07:45.527Z,4.70
2017-08-05T02:10:13.799Z,3.93
2017-08-05T02:12:42.135Z,3.37
2017-08-05T02:15:10.407Z,2.93
2017-08-05T02:17:38.679Z,5.27
2017-08-05T02:20:08.378Z,3.60
2017-08-05T02:22:36.526Z,5.80
2017-08-05T02:25:06.157Z,4.03
2017-08-05T02:27:35.139Z,2.90
2017-08-05T02:30:04.788Z,5.73
2017-08-05T02:32:33.358Z,2.70
2017-08-05T02:35:02.094Z,4.30
2017-08-05T02:37:30.775Z,3.90
2017-08-05T02:39:59.046Z,3.30
2017-08-05T02:42:27.520Z,4.63
2017-08-05T02:44:56.938Z,4.07
2017-08-05T02:47:25.215Z,6.17
2017-08-05T02:49:53.559Z,5.23
2017-08-05T02:52:21.838Z,4.33
2017-08-05T02:54:50.157Z,3.57
2017-08-05T02:57:18.495Z,4.00
2017-08-05T02:59:48.150Z,7.37
2017-08-05T03:02:16.316Z,6.90
2017-08-05T03:04:44.659Z,4.30
2017-08-05T03:07:14.448Z,4.60
2017-08-05T03:09:42.718Z,4.03
2017-08-05T03:12:11.302Z,4.73
2017-08-05T03:14:40.935Z,5.47
2017-08-05T03:17:09.495Z,5.60
2017-08-05T03:19:38.975Z,6.03
2017-08-05T03:22:08.758Z,5.27
2017-08-05T03:24:38.394Z,4.40
2017-08-05T03:27:07.334Z,6.13
2017-08-05T03:29:37.106Z,4.83
2017-08-05T03:32:05.403Z,5.60
2017-08-05T03:34:35.280Z,4.53
2017-08-05T03:37:03.559Z,5.80
2017-08-05T03:39:33.364Z,4.27
2017-08-05T03:42:01.974Z,8.93
2017-08-05T03:44:30.246Z,5.60
2017-08-05T03:46:58.523Z,6.00
2017-08-05T03:49:27.106Z,5.53
2017-08-05T03:51:56.526Z,5.57
2017-08-05T03:54:24.806Z,5.23
2017-08-05T03:56:53.188Z,6.20
2017-08-05T03:59:22.352Z,8.60
2017-08-05T04:01:50.651Z,5.83
2017-08-05T04:04:18.973Z,5.90
2017-08-05T04:06:48.767Z,6.93
2017-08-05T04:09:17.058Z,7.13
2017-08-05T04:11:45.390Z,6.80
2017-08-05T04:14:13.671Z,7.07
2017-08-05T04:16:41.950Z,7.00
2017-08-05T04:19:11.419Z,7.07
2017-08-05T04:21:39.711Z,5.33
2017-08-05T04:24:08.383Z,6.47
2017-08-05T04:26:37.066Z,7.87
2017-08-05T04:29:06.128Z,6.27
2017-08-05T04:31:34.416Z,7.10
2017-08-05T04:34:04.545Z,6.90
2017-08-05T04:36:32.707Z,6.77
2017-08-05T04:39:00.987Z,7.03
2017-08-05T04:41:30.891Z,7.03
2017-08-05T04:43:59.431Z,5.93
2017-08-05T04:46:29.050Z,6.20
2017-08-05T04:48:57.262Z,5.50
2017-08-05T04:51:26.681Z,9.40
2017-08-05T04:53:54.955Z,6.50
2017-08-05T04:56:23.291Z,7.00
2017-08-05T04:58:51.563Z,8.40
2017-08-05T05:01:19.839Z,6.50
2017-08-05T05:03:48.218Z,6.83
2017-08-05T05:06:16.503Z,7.73
2017-08-05T05:08:46.146Z,7.00
2017-08-05T05:11:14.376Z,7.47
2017-08-05T05:13:44.151Z,7.90
2017-08-05T05:16:12.433Z,8.53
2017-08-05T05:18:41.186Z,8.83
2017-08-05T05:21:10.223Z,7.77
2017-08-05T05:23:39.271Z,10.20
2017-08-05T05:26:08.746Z,8.77
2017-08-05T05:28:38.535Z,9.00
2017-08-05T05:31:08.194Z,12.27
2017-08-05T05:33:36.947Z,11.13
2017-08-05T05:36:05.226Z,10.50
2017-08-05T05:38:33.515Z,11.63
2017-08-05T05:41:02.979Z,9.27
2017-08-05T05:43:31.260Z,10.50
2017-08-05T05:45:59.551Z,11.30
2017-08-05T05:48:27.904Z,12.47
2017-08-05T05:50:57.687Z,10.43
2017-08-05T05:53:25.966Z,9.17
2017-08-05T05:55:55.629Z,9.63
2017-08-05T05:58:24.542Z,8.63
2017-08-05T06:00:54.168Z,8.80
2017-08-05T06:03:23.146Z,8.80
2017-08-05T06:08:30.307Z,9.13
2017-08-05T06:11:00.090Z,9.27
2017-08-05T06:13:28.759Z,9.33
2017-08-05T06:15:57.400Z,9.67
2017-08-05T06:18:26.440Z,8.57
2017-08-05T06:20:54.722Z,9.43
2017-08-05T06:23:23.686Z,9.60
2017-08-05T06:25:51.960Z,8.27
2017-08-05T06:28:21.375Z,8.60
2017-08-05T06:30:50.593Z,12.73
2017-08-05T06:33:19.649Z,7.60
2017-08-05T06:35:47.942Z,8.17
2017-08-05T06:38:16.303Z,7.90
2017-08-05T06:40:44.579Z,8.63
2017-08-05T06:43:14.202Z,8.23
2017-08-05T06:45:43.558Z,11.00
2017-08-05T06:48:13.139Z,7.20
2017-08-05T06:50:42.177Z,8.10
2017-08-05T06:53:12.430Z,7.07
2017-08-05T06:55:40.580Z,7.87
2017-08-05T06:58:10.357Z,8.03
2017-08-05T07:00:38.708Z,8.10
2017-08-05T07:03:07.776Z,7.60
2017-08-05T07:05:36.827Z,7.77
2017-08-05T07:08:05.182Z,8.20
2017-08-05T07:10:33.480Z,9.30
2017-08-05T07:13:03.122Z,6.97
2017-08-05T07:15:31.734Z,8.00
2017-08-05T07:18:00.063Z,7.13
2017-08-05T07:20:28.334Z,7.20
2017-08-05T07:22:56.759Z,7.43
2017-08-05T07:25:25.806Z,7.23
2017-08-05T07:27:54.848Z,8.70
2017-08-05T07:30:24.226Z,7.60
2017-08-05T07:32:54.019Z,9.60
2017-08-05T07:35:23.642Z,7.67
2017-08-05T07:37:52.382Z,9.33
2017-08-05T07:40:20.671Z,7.60
2017-08-05T07:42:48.973Z,12.10
2017-08-05T07:45:17.348Z,14.03
2017-08-05T07:47:46.980Z,8.37
2017-08-05T07:50:16.179Z,8.23
2017-08-05T07:52:45.286Z,11.40
2017-08-05T07:55:13.578Z,14.20
2017-08-05T07:57:41.867Z,16.07
2017-08-05T08:00:10.316Z,12.67
2017-08-05T08:02:39.366Z,14.77
2017-08-05T08:05:08.416Z,15.03
2017-08-05T08:07:36.759Z,13.10
2017-08-05T08:10:05.815Z,9.53
2017-08-05T08:12:34.100Z,11.30
2017-08-05T08:15:03.742Z,6.10
2017-08-05T08:17:32.418Z,7.10
2017-08-05T08:20:00.699Z,8.20
2017-08-05T08:22:29.038Z,7.57
2017-08-05T08:24:57.318Z,6.77
2017-08-05T08:27:25.595Z,4.67
2017-08-05T08:29:54.839Z,4.37
2017-08-05T08:32:23.119Z,4.50
2017-08-05T08:34:51.395Z,6.30
2017-08-05T08:37:19.802Z,4.30
2017-08-05T08:39:49.604Z,4.37
2017-08-05T08:42:19.285Z,4.80
2017-08-05T08:44:47.896Z,4.30
2017-08-05T08:47:16.197Z,7.57
2017-08-05T08:49:44.956Z,4.70
2017-08-05T08:52:13.626Z,4.40
2017-08-05T08:54:43.250Z,4.90
2017-08-05T08:57:12.456Z,6.33
2017-08-05T08:59:42.244Z,4.50
2017-08-05T09:02:12.059Z,2.97
2017-08-05T09:04:42.175Z,5.20
2017-08-05T09:07:11.095Z,7.40
2017-08-05T09:09:39.371Z,4.00
2017-08-05T09:12:09.486Z,5.03
2017-08-05T09:14:38.903Z,3.53
2017-08-05T09:17:07.183Z,7.63
2017-08-05T09:19:35.535Z,4.50
2017-08-05T09:22:03.857Z,4.73
2017-08-05T09:24:32.122Z,4.60
2017-08-05T09:27:01.328Z,3.90
2017-08-05T09:29:29.998Z,4.87
2017-08-05T09:31:58.278Z,4.50
2017-08-05T09:34:27.374Z,3.87
2017-08-05T09:36:57.006Z,5.13
2017-08-05T09:39:25.556Z,3.67
2017-08-05T09:41:53.891Z,3.90
2017-08-05T09:44:22.164Z,2.53
2017-08-05T09:46:50.447Z,3.60
2017-08-05T09:49:19.267Z,3.40
2017-08-05T09:51:48.326Z,3.27
2017-08-05T09:54:17.374Z,3.40
2017-08-05T09:56:47.128Z,3.97
2017-08-05T09:59:16.678Z,5.40
2017-08-05T10:01:46.054Z,3.37
2017-08-05T10:04:15.554Z,3.67
2017-08-05T10:06:43.847Z,5.30
2017-08-05T10:09:13.470Z,4.90
2017-08-05T10:11:42.351Z,5.10
2017-08-05T10:14:11.393Z,3.60
2017-08-05T10:16:41.175Z,3.97
2017-08-05T10:22:04.563Z,3.80
2017-08-05T10:24:33.830Z,4.20
2017-08-05T10:27:03.494Z,3.63
2017-08-05T10:29:32.102Z,3.57
2017-08-05T10:32:00.378Z,5.40
2017-08-05T10:34:28.655Z,3.43
2017-08-05T10:36:58.799Z,5.50
2017-08-05T10:39:27.075Z,3.77
2017-08-05T10:41:55.354Z,4.23
2017-08-05T10:44:23.703Z,4.17
2017-08-05T10:46:53.496Z,3.80
2017-08-05T10:49:21.762Z,6.80
2017-08-05T10:51:51.646Z,5.07
2017-08-05T10:54:20.950Z,8.33
2017-08-05T10:56:49.251Z,5.93
2017-08-05T10:59:17.975Z,6.23
2017-08-05T11:01:47.614Z,7.43
2017-08-05T11:04:15.786Z,8.70
2017-08-05T11:06:44.102Z,9.70
2017-08-05T11:09:12.391Z,9.00
2017-08-05T11:11:40.686Z,11.40
2017-08-05T11:14:09.364Z,11.50
2017-08-05T11:16:38.035Z,10.30
2017-08-05T11:19:07.087Z,11.47
2017-08-05T11:21:35.728Z,12.93
2017-08-05T11:24:04.799Z,13.57
2017-08-05T11:26:33.088Z,15.60
2017-08-05T11:29:02.782Z,15.53
2017-08-05T11:31:31.711Z,14.37
2017-08-05T11:33:59.997Z,14.73
2017-08-05T11:36:29.450Z,11.20
2017-08-05T11:38:59.075Z,8.63
2017-08-05T11:41:27.228Z,8.63
2017-08-05T11:43:55.559Z,8.90
2017-08-05T11:46:25.334Z,8.13
2017-08-05T11:48:53.623Z,7.87
2017-08-05T11:51:22.847Z,7.90
2017-08-05T11:53:52.629Z,6.83
2017-08-05T11:56:20.922Z,8.43
2017-08-05T11:58:50.019Z,6.83
2017-08-05T12:01:18.311Z,6.67
2017-08-05T12:03:46.594Z,6.20
2017-08-05T12:06:15.292Z,5.70
2017-08-05T12:08:43.562Z,5.80
2017-08-05T12:11:13.202Z,5.53
2017-08-05T12:13:41.444Z,5.53
2017-08-05T12:16:10.854Z,6.23
2017-08-05T12:18:39.135Z,5.13
2017-08-05T12:21:09.103Z,5.90
2017-08-05T12:23:38.618Z,5.70
2017-08-05T12:26:07.170Z,6.00
2017-08-05T12:28:35.842Z,5.47
2017-08-05T12:31:04.898Z,5.30
2017-08-05T12:33:33.575Z,5.00
2017-08-05T12:36:02.246Z,3.97
2017-08-05T12:38:30.540Z,3.57
2017-08-05T12:40:58.821Z,4.27
2017-08-05T12:43:28.662Z,6.47
2017-08-05T12:45:57.719Z,5.83
2017-08-05T12:48:26.766Z,4.47
2017-08-05T12:50:55.655Z,3.63
2017-08-05T12:53:24.326Z,4.00
2017-08-05T12:55:52.884Z,4.57
2017-08-05T12:58:21.610Z,4.57
2017-08-05T13:00:49.899Z,5.10
2017-08-05T13:03:18.956Z,5.17
2017-08-05T13:05:47.835Z,4.67
2017-08-05T13:08:17.478Z,5.33
2017-08-05T13:10:45.645Z,5.10
2017-08-05T13:13:13.971Z,5.50
2017-08-05T13:15:42.252Z,5.40
2017-08-05T13:18:12.034Z,4.93
2017-08-05T13:20:40.659Z,6.90
2017-08-05T13:23:10.070Z,4.63
2017-08-05T13:25:39.699Z,3.90
2017-08-05T13:28:16.679Z,5.40
2017-08-05T13:30:44.981Z,4.40
2017-08-05T13:33:13.254Z,4.67
2017-08-05T13:35:43.232Z,5.00
2017-08-05T13:38:11.394Z,4.43
2017-08-05T13:40:39.678Z,4.90
2017-08-05T13:43:09.146Z,12.33
2017-08-05T13:45:38.578Z,5.63
2017-08-05T13:48:06.854Z,7.20
2017-08-05T13:50:35.584Z,6.70
2017-08-05T13:53:03.879Z,5.20
2017-08-05T13:55:32.159Z,5.60
2017-08-05T13:58:01.816Z,7.00
2017-08-05T14:00:30.525Z,5.03
2017-08-05T14:02:59.608Z,6.03
2017-08-05T14:05:28.043Z,9.13
2017-08-05T14:07:56.762Z,6.73
2017-08-05T14:10:26.171Z,5.10
2017-08-05T14:12:54.911Z,5.90
2017-08-05T14:15:23.170Z,6.17
2017-08-05T14:17:52.223Z,6.07
2017-08-05T14:20:22.202Z,4.60
2017-08-05T14:22:50.376Z,5.33
2017-08-05T14:25:18.685Z,5.80
2017-08-05T14:27:47.048Z,8.40
2017-08-05T14:30:15.324Z,5.40
2017-08-05T14:32:43.590Z,5.97
2017-08-05T14:35:13.199Z,3.93
2017-08-05T14:37:41.475Z,4.20
2017-08-05T14:40:09.750Z,3.90
2017-08-05T14:42:38.067Z,4.50
2017-08-05T14:45:07.495Z,4.67
2017-08-05T14:47:35.774Z,5.80
2017-08-05T14:50:04.126Z,5.57
2017-08-05T14:52:32.394Z,6.20
2017-08-05T14:55:00.670Z,6.90
2017-08-05T14:57:29.143Z,5.50
2017-08-05T14:59:59.069Z,6.80
2017-08-05T15:02:27.217Z,6.10
2017-08-05T15:04:56.318Z,7.53
2017-08-05T15:07:24.602Z,8.90
2017-08-05T15:09:54.386Z,7.33
2017-08-05T15:12:22.724Z,7.27
2017-08-05T15:14:52.354Z,7.70
2017-08-05T15:17:20.911Z,7.93
2017-08-05T15:19:49.262Z,7.07
2017-08-05T15:22:17.551Z,8.50
2017-08-05T15:24:45.859Z,9.80
2017-08-05T15:27:15.570Z,7.57
2017-08-05T15:29:43.706Z,7.73
2017-08-05T15:32:11.992Z,8.63
2017-08-05T15:34:41.670Z,7.63
2017-08-05T15:37:10.603Z,10.00
2017-08-05T15:39:38.879Z,9.10
2017-08-05T15:42:08.921Z,12.07
2017-08-05T15:44:38.439Z,12.43
2017-08-05T15:47:08.115Z,11.33
2017-08-05T15:49:36.763Z,12.17
2017-08-05T15:52:06.595Z,15.93
2017-08-05T15:54:36.431Z,13.30
2017-08-05T15:57:04.764Z,13.70
2017-08-05T15:59:33.048Z,14.70
2017-08-05T16:02:01.782Z,13.90
2017-08-05T16:04:30.439Z,16.47
2017-08-05T16:07:00.229Z,13.70
2017-08-05T16:09:29.279Z,16.00
2017-08-05T16:11:57.607Z,14.53
2017-08-05T16:14:26.283Z,14.53
2017-08-05T16:16:54.567Z,14.80
2017-08-05T16:19:24.478Z,16.13
2017-08-05T16:21:52.759Z,13.83
2017-08-05T16:24:21.058Z,15.17
2017-08-05T16:26:50.169Z,12.70
2017-08-05T16:29:19.222Z,14.33
2017-08-05T16:31:48.671Z,13.13
2017-08-05T16:34:20.455Z,13.50
2017-08-05T16:36:49.195Z,12.83
2017-08-05T16:39:18.642Z,13.47
2017-08-05T16:41:47.144Z,12.73
2017-08-05T16:44:16.526Z,13.17
2017-08-05T16:46:45.583Z,11.77
2017-08-05T16:49:13.923Z,13.20
2017-08-05T16:51:42.210Z,14.20
2017-08-05T16:54:11.850Z,12.03
2017-08-05T16:56:40.063Z,12.87
2017-08-05T16:59:09.861Z,14.30
2017-08-05T17:01:38.534Z,12.80
2017-08-05T17:04:07.164Z,12.50
2017-08-05T17:06:36.963Z,12.40
2017-08-05T17:09:06.615Z,12.70
2017-08-05T17:11:36.320Z,11.83
2017-08-05T17:14:04.617Z,10.90
2017-08-05T17:16:34.404Z,11.50
2017-08-05T17:19:05.907Z,10.30
2017-08-05T17:21:34.587Z,11.60
2017-08-05T17:24:03.637Z,11.03
2017-08-05T17:26:33.884Z,11.70
2017-08-05T17:29:02.811Z,12.30
2017-08-05T17:31:31.098Z,14.10
2017-08-05T17:34:00.344Z,12.90
2017-08-05T17:36:29.408Z,14.80
2017-08-05T17:38:57.700Z,12.43
2017-08-05T17:41:26.783Z,12.20
2017-08-05T17:43:55.464Z,12.33
2017-08-05T17:46:24.514Z,11.53
2017-08-05T17:48:54.210Z,13.07
2017-08-05T17:51:22.773Z,13.50
2017-08-05T17:53:51.831Z,14.80
2017-08-05T17:56:20.317Z,14.53
2017-08-05T17:58:50.129Z,15.10
2017-08-05T18:01:19.191Z,14.07
2017-08-05T18:03:48.632Z,14.73
2017-08-05T18:06:17.658Z,14.97
2017-08-05T18:08:46.363Z,12.10
2017-08-05T18:11:15.504Z,11.10
2017-08-05T18:13:43.787Z,10.63
2017-08-05T18:16:13.213Z,12.90
2017-08-05T18:18:42.986Z,11.37
2017-08-05T18:21:11.908Z,11.37
2017-08-05T18:23:40.190Z,11.70
2017-08-05T18:26:08.519Z,11.87
2017-08-05T18:28:37.570Z,11.63
2017-08-05T18:31:07.203Z,12.40
2017-08-05T18:33:36.184Z,10.57
2017-08-05T18:36:05.996Z,14.53
2017-08-05T18:38:34.298Z,13.00
2017-08-05T18:41:04.546Z,12.07
2017-08-05T18:43:32.846Z,12.63
2017-08-05T18:48:36.786Z,14.47
2017-08-05T18:51:06.599Z,13.67
2017-08-05T18:53:34.905Z,14.87
2017-08-05T18:56:03.612Z,15.00
2017-08-05T18:58:31.894Z,22.37
2017-08-05T19:01:01.310Z,16.57
2017-08-05T19:03:29.663Z,16.50
2017-08-05T19:05:57.955Z,17.37
2017-08-05T19:08:26.242Z,16.70
2017-08-05T19:10:55.330Z,16.93
2017-08-05T19:13:23.623Z,18.60
2017-08-05T19:15:53.260Z,18.93
2017-08-05T19:18:21.867Z,18.27
2017-08-05T19:20:50.178Z,18.83
2017-08-05T19:23:18.501Z,17.80
2017-08-05T19:25:46.868Z,16.93
2017-08-05T19:28:15.153Z,19.03
2017-08-05T19:30:44.216Z,18.93
2017-08-05T19:33:13.360Z,17.70
2017-08-05T19:35:42.787Z,18.77
2017-08-05T19:38:11.072Z,18.70
2017-08-05T19:40:39.415Z,17.00
2017-08-05T19:43:07.710Z,17.83
2017-08-05T19:45:36.027Z,19.23
2017-08-05T19:48:05.835Z,17.10
2017-08-05T19:50:34.141Z,16.33
2017-08-05T19:53:02.438Z,15.67
2017-08-05T19:55:31.821Z,15.40
2017-08-05T19:58:01.454Z,13.37
2017-08-05T20:00:29.625Z,12.63
2017-08-05T20:02:58.085Z,12.83
2017-08-05T20:05:27.722Z,13.30
2017-08-05T20:07:57.235Z,12.67
2017-08-05T20:10:26.583Z,12.70
2017-08-05T20:12:56.011Z,11.80
2017-08-05T20:15:24.292Z,14.23
2017-08-05T20:17:52.638Z,13.67
2017-08-05T20:20:20.930Z,13.13
2017-08-05T20:22:49.240Z,12.20
2017-08-05T20:25:17.908Z,13.70
2017-08-05T20:27:47.735Z,14.00
2017-08-05T20:30:17.390Z,11.83
2017-08-05T20:32:46.064Z,12.00
2017-08-05T20:35:15.127Z,11.13
2017-08-05T20:37:44.543Z,10.70
2017-08-05T20:40:13.914Z,11.80
2017-08-05T20:42:43.338Z,11.63
2017-08-05T20:45:11.617Z,9.90
2017-08-05T20:47:41.306Z,10.77
2017-08-05T20:50:09.863Z,10.57
2017-08-05T20:52:38.147Z,12.93
2017-08-05T20:55:06.568Z,12.83
2017-08-05T20:57:36.234Z,12.73
2017-08-05T21:00:04.405Z,11.33
2017-08-05T21:02:33.070Z,12.50
2017-08-05T21:05:01.755Z,13.67
2017-08-05T21:07:31.170Z,14.40
2017-08-05T21:09:59.622Z,12.43
2017-08-05T21:12:27.912Z,13.93
2017-08-05T21:14:57.340Z,16.00
2017-08-05T21:17:26.420Z,14.80
2017-08-05T21:19:55.103Z,15.07
2017-08-05T21:22:24.405Z,16.40
2017-08-05T21:24:53.658Z,13.50
2017-08-05T21:27:23.291Z,15.90
2017-08-05T21:29:51.482Z,18.30
2017-08-05T21:32:19.836Z,15.53
2017-08-05T21:34:48.149Z,15.73
2017-08-05T21:37:16.494Z,14.37
2017-08-05T21:39:46.812Z,15.70
2017-08-05T21:42:15.113Z,16.03
2017-08-05T21:44:44.539Z,25.40
2017-08-05T21:47:13.166Z,16.77
2017-08-05T21:49:42.963Z,14.87
2017-08-05T21:52:11.258Z,14.93
2017-08-05T21:54:41.239Z,14.67
2017-08-05T21:57:09.803Z,14.70
2017-08-05T21:59:38.101Z,14.03
2017-08-05T22:02:07.677Z,13.93
2017-08-05T22:04:37.474Z,13.47
2017-08-05T22:07:05.795Z,14.73
2017-08-05T22:09:34.432Z,13.03
2017-08-05T22:12:03.485Z,12.20
2017-08-05T22:14:31.771Z,12.77
2017-08-05T22:17:00.887Z,12.80
2017-08-05T22:19:29.945Z,11.20
2017-08-05T22:21:58.989Z,10.10
2017-08-05T22:24:28.459Z,13.23
2017-08-05T22:26:56.734Z,9.57
2017-08-05T22:29:25.011Z,10.40
2017-08-05T22:31:53.399Z,9.70
2017-08-05T22:34:21.691Z,10.47
2017-08-05T22:36:50.739Z,9.17
2017-08-05T22:39:19.940Z,10.03
2017-08-05T22:41:48.996Z,11.63
2017-08-05T22:44:17.285Z,9.53
2017-08-05T22:46:47.155Z,9.60
2017-08-05T22:49:16.797Z,8.90
2017-08-05T22:51:45.387Z,10.00
2017-08-05T22:54:13.823Z,8.83
2017-08-05T22:56:42.113Z,10.07
2017-08-05T22:59:10.387Z,8.07
2017-08-05T23:01:38.863Z,10.50
2017-08-05T23:04:07.910Z,11.53
2017-08-05T23:06:36.210Z,11.37
2017-08-05T23:09:05.301Z,9.67
2017-08-05T23:11:34.736Z,11.43
2017-08-05T23:14:03.015Z,10.80
2017-08-05T23:16:34.075Z,9.60
2017-08-05T23:19:03.491Z,8.97
2017-08-05T23:21:31.767Z,9.00
2017-08-05T23:24:00.390Z,9.17
2017-08-05T23:26:29.066Z,10.37
2017-08-05T23:28:58.856Z,10.40
2017-08-05T23:31:28.246Z,10.53
2017-08-05T23:33:57.303Z,9.50
2017-08-05T23:36:25.575Z,10.10
2017-08-05T23:38:55.538Z,10.03
2017-08-05T23:41:23.818Z,8.83
2017-08-05T23:43:52.102Z,9.60
2017-08-05T23:46:20.827Z,9.10
2017-08-05T23:48:49.110Z,8.83
2017-08-05T23:51:18.574Z,9.67
2017-08-05T23:53:47.306Z,9.13
2017-08-05T23:56:16.747Z,10.80
2017-08-05T23:58:45.024Z,9.67
